Time;durP1;ratioP1;P1;durP2;ratioP2;P2;SDS_P1;SDS_P2;PMS_P1;PMS_P2;Temp;Humidity;BMP_temperature;BMP_pressure;BME280_temperature;BME280_humidity;BME280_pressure;Samples;Min_cycle;Max_cycle;Signal;HPM_P1;HPM_P2
2021/01/13 00:00:11;;;;;;;61.80;20.05;;;;;;;;;;8257721;28;20391;-74
2021/01/13 00:04:14;;;;;;;94.30;25.65;;;;;;;;;;8257004;28;20383;-76
2021/01/13 00:08:17;;;;;;;94.15;30.23;;;;;;;;;;8256969;28;20464;-75
2021/01/13 00:12:20;;;;;;;64.03;21.45;;;;;;;;;;8257172;28;20580;-75
2021/01/13 00:16:23;;;;;;;43.83;18.17;;;;;;;;;;8256932;28;20399;-75
2021/01/13 00:20:26;;;;;;;23.08;11.60;;;;;;;;;;8254183;28;20514;-75
2021/01/13 00:24:29;;;;;;;33.97;12.48;;;;;;;;;;8256789;28;20391;-74
2021/01/13 00:28:35;;;;;;;30.23;11.60;;;;;;;;;;8257185;28;20374;-74
2021/01/13 00:32:38;;;;;;;23.38;10.30;;;;;;;;;;8256177;28;20075;-73
2021/01/13 00:36:42;;;;;;;19.67;9.88;;;;;;;;;;8256132;28;20497;-73
2021/01/13 00:40:45;;;;;;;24.05;10.10;;;;;;;;;;8255130;28;20506;-73
2021/01/13 00:44:48;;;;;;;26.45;9.77;;;;;;;;;;8256235;28;20498;-74
2021/01/13 00:48:51;;;;;;;19.83;9.13;;;;;;;;;;8255603;28;20464;-74
2021/01/13 00:52:54;;;;;;;15.68;8.13;;;;;;;;;;8255262;28;20379;-74
2021/01/13 00:56:58;;;;;;;21.33;8.77;;;;;;;;;;8255165;28;20356;-76
2021/01/13 01:01:01;;;;;;;14.55;7.15;;;;;;;;;;8254156;28;20049;-74
2021/01/13 01:05:06;;;;;;;13.52;6.68;;;;;;;;;;8256109;28;20368;-74
2021/01/13 01:09:10;;;;;;;9.10;5.93;;;;;;;;;;8255653;28;20487;-73
2021/01/13 01:13:13;;;;;;;9.88;4.82;;;;;;;;;;8255368;28;20441;-74
2021/01/13 01:17:16;;;;;;;12.57;5.78;;;;;;;;;;8255391;28;20448;-74
2021/01/13 01:21:20;;;;;;;26.08;8.48;;;;;;;;;;8255976;28;20418;-74
2021/01/13 01:25:26;;;;;;;38.67;10.27;;;;;;;;;;8239031;28;20481;-77
2021/01/13 01:29:29;;;;;;;15.98;5.78;;;;;;;;;;8257204;28;20057;-75
2021/01/13 01:33:32;;;;;;;5.22;3.67;;;;;;;;;;8254466;28;20368;-75
2021/01/13 01:37:36;;;;;;;12.60;4.88;;;;;;;;;;8256133;28;20463;-74
2021/01/13 01:41:43;;;;;;;22.50;6.63;;;;;;;;;;8256436;28;20375;-74
2021/01/13 01:45:46;;;;;;;7.68;3.58;;;;;;;;;;8254433;28;20498;-74
2021/01/13 01:49:49;;;;;;;17.27;5.25;;;;;;;;;;8255875;28;20072;-74
2021/01/13 01:54:30;;;;;;;10.30;3.45;;;;;;;;;;8254050;28;20517;-74
2021/01/13 01:58:33;;;;;;;6.57;2.90;;;;;;;;;;8243779;28;20571;-74
2021/01/13 02:02:41;;;;;;;8.18;3.65;;;;;;;;;;8254453;28;20053;-74
2021/01/13 02:07:10;;;;;;;14.82;5.72;;;;;;;;;;8255570;28;20353;-74
2021/01/13 02:11:24;;;;;;;7.13;3.15;;;;;;;;;;8251230;28;20072;-75
2021/01/13 02:15:27;;;;;;;10.70;3.58;;;;;;;;;;8252769;28;20416;-74
2021/01/13 02:20:02;;;;;;;9.48;4.25;;;;;;;;;;8252792;28;20383;-75
2021/01/13 02:24:51;;;;;;;14.00;5.10;;;;;;;;;;8253013;28;20391;-74
2021/01/13 02:29:09;;;;;;;5.60;2.75;;;;;;;;;;8254677;28;20391;-74
2021/01/13 02:33:22;;;;;;;6.38;2.50;;;;;;;;;;8252512;28;20409;-74
2021/01/13 02:37:40;;;;;;;6.68;2.75;;;;;;;;;;8230939;28;20049;-74
2021/01/13 02:41:46;;;;;;;7.43;2.50;;;;;;;;;;8255785;28;20360;-74
2021/01/13 02:45:49;;;;;;;4.65;2.20;;;;;;;;;;8255058;28;20759;-74
2021/01/13 02:49:53;;;;;;;6.10;2.22;;;;;;;;;;8253721;28;20455;-74
2021/01/13 02:53:57;;;;;;;7.38;2.28;;;;;;;;;;8253944;28;20057;-74
2021/01/13 02:58:06;;;;;;;4.05;2.35;;;;;;;;;;8252755;28;20415;-74
2021/01/13 03:02:11;;;;;;;6.93;3.00;;;;;;;;;;8253809;28;20486;-74
2021/01/13 03:06:17;;;;;;;5.03;3.13;;;;;;;;;;8251589;28;20383;-75
2021/01/13 03:10:24;;;;;;;4.80;2.80;;;;;;;;;;8251464;28;20045;-74
2021/01/13 03:14:32;;;;;;;6.68;3.38;;;;;;;;;;8251937;28;20468;-74
2021/01/13 03:19:04;;;;;;;17.35;5.78;;;;;;;;;;8234228;28;20040;-74
2021/01/13 03:23:22;;;;;;;14.82;5.07;;;;;;;;;;8236556;28;20349;-74
2021/01/13 03:27:25;;;;;;;10.33;4.83;;;;;;;;;;8253917;28;20472;-74
2021/01/13 03:31:35;;;;;;;23.13;8.30;;;;;;;;;;8220139;28;20399;-75
2021/01/13 03:35:44;;;;;;;19.80;7.88;;;;;;;;;;8251825;28;20480;-75
2021/01/13 03:39:51;;;;;;;9.50;5.50;;;;;;;;;;8250767;28;20568;-74
2021/01/13 03:43:54;;;;;;;25.00;9.40;;;;;;;;;;8249904;28;20422;-74
2021/01/13 03:48:04;;;;;;;11.90;5.80;;;;;;;;;;8251152;28;20075;-74
2021/01/13 03:52:12;;;;;;;10.98;5.38;;;;;;;;;;8253375;28;20480;-75
2021/01/13 03:56:28;;;;;;;16.77;6.57;;;;;;;;;;8252799;28;20386;-75
2021/01/13 04:01:01;;;;;;;31.30;11.40;;;;;;;;;;8252966;28;20049;-74
2021/01/13 04:05:18;;;;;;;13.73;5.78;;;;;;;;;;8249029;28;20574;-76
2021/01/13 04:09:21;;;;;;;20.23;7.28;;;;;;;;;;8249550;28;20376;-74
2021/01/13 04:13:42;;;;;;;68.35;16.45;;;;;;;;;;8249770;28;20506;-74
2021/01/13 04:17:47;;;;;;;18.02;6.72;;;;;;;;;;8249829;28;20490;-74
2021/01/13 04:21:51;;;;;;;8.13;5.07;;;;;;;;;;8253035;28;20472;-74
2021/01/13 04:25:55;;;;;;;24.55;8.43;;;;;;;;;;8240045;28;20388;-73
2021/01/13 04:29:59;;;;;;;29.40;9.05;;;;;;;;;;8256390;28;20353;-73
2021/01/13 04:34:03;;;;;;;20.50;8.15;;;;;;;;;;8255856;28;20478;-73
2021/01/13 04:38:10;;;;;;;9.57;6.00;;;;;;;;;;8256855;28;20388;-73
2021/01/13 04:42:15;;;;;;;9.82;5.05;;;;;;;;;;8256982;28;20472;-72
2021/01/13 04:46:33;;;;;;;21.55;9.82;;;;;;;;;;8254822;28;20486;-74
2021/01/13 04:50:43;;;;;;;9.25;4.95;;;;;;;;;;8256242;28;20083;-72
2021/01/13 04:54:48;;;;;;;10.07;3.97;;;;;;;;;;8255578;28;20373;-73
2021/01/13 04:59:00;;;;;;;9.95;4.70;;;;;;;;;;8257696;28;20391;-73
2021/01/13 05:03:39;;;;;;;7.43;3.47;;;;;;;;;;8257250;28;20489;-72
2021/01/13 05:07:42;;;;;;;7.90;3.63;;;;;;;;;;8255644;28;20474;-73
2021/01/13 05:11:49;;;;;;;7.68;3.17;;;;;;;;;;8240945;28;20084;-73
2021/01/13 05:15:57;;;;;;;28.08;5.72;;;;;;;;;;8257021;28;20483;-74
2021/01/13 05:20:06;;;;;;;6.97;2.80;;;;;;;;;;8256397;28;20467;-73
2021/01/13 05:24:14;;;;;;;;;;;;;;;;;;8256712;28;20459;-73
2021/01/13 05:28:27;;;;;;;14.48;4.55;;;;;;;;;;8254576;28;20266;-72
2021/01/13 05:32:33;;;;;;;4.28;1.90;;;;;;;;;;8255323;28;20464;-72
2021/01/13 05:36:44;;;;;;;6.10;2.28;;;;;;;;;;8255759;28;20049;-72
2021/01/13 05:40:53;;;;;;;7.70;2.65;;;;;;;;;;8254836;28;20444;-73
2021/01/13 05:44:59;;;;;;;4.35;1.98;;;;;;;;;;8255955;28;20064;-72
2021/01/13 05:49:03;;;;;;;6.85;3.22;;;;;;;;;;8255073;28;20479;-72
2021/01/13 05:53:07;;;;;;;4.72;2.65;;;;;;;;;;8260171;28;20048;-72
2021/01/13 05:57:14;;;;;;;2.58;1.52;;;;;;;;;;8253338;28;20399;-72
2021/01/13 06:01:43;;;;;;;7.65;2.78;;;;;;;;;;8252852;28;20049;-72
2021/01/13 06:05:58;;;;;;;4.53;2.20;;;;;;;;;;8248660;28;20474;-72
2021/01/13 06:10:02;;;;;;;4.97;2.20;;;;;;;;;;8252439;28;20057;-73
2021/01/13 06:14:07;;;;;;;6.30;2.35;;;;;;;;;;8251825;28;20048;-73
2021/01/13 06:18:15;;;;;;;4.00;1.80;;;;;;;;;;8255303;28;20439;-72
2021/01/13 06:22:19;;;;;;;5.38;1.92;;;;;;;;;;8250879;28;20475;-73
2021/01/13 06:26:22;;;;;;;5.95;2.30;;;;;;;;;;8255170;28;20475;-73
2021/01/13 06:30:42;;;;;;;5.03;1.55;;;;;;;;;;8254858;28;20375;-73
2021/01/13 06:35:14;;;;;;;7.60;2.38;;;;;;;;;;8254966;28;20502;-72
2021/01/13 06:39:18;;;;;;;4.68;2.08;;;;;;;;;;8252822;28;20071;-74
2021/01/13 06:43:21;;;;;;;5.90;3.88;;;;;;;;;;8254771;28;20349;-73
2021/01/13 06:47:25;;;;;;;9.00;4.00;;;;;;;;;;8254242;28;20049;-73
2021/01/13 06:51:28;;;;;;;7.53;3.97;;;;;;;;;;8253165;28;20384;-74
2021/01/13 06:55:33;;;;;;;8.10;3.47;;;;;;;;;;8247424;28;20433;-73
2021/01/13 06:59:39;;;;;;;29.55;12.82;;;;;;;;;;8263905;28;20412;-73
2021/01/13 07:03:42;;;;;;;16.58;7.47;;;;;;;;;;8260047;28;20379;-74
2021/01/13 07:07:45;;;;;;;20.25;9.13;;;;;;;;;;8250836;28;20410;-73
2021/01/13 07:11:50;;;;;;;12.68;4.38;;;;;;;;;;8251066;28;20475;-73
2021/01/13 07:15:59;;;;;;;10.93;4.55;;;;;;;;;;8247123;28;20392;-73
2021/01/13 07:20:03;;;;;;;;;;;;;;;;;;8247288;28;20464;-73
2021/01/13 07:24:16;;;;;;;8.27;2.95;;;;;;;;;;8247262;28;20344;-73
2021/01/13 07:28:21;;;;;;;8.60;3.00;;;;;;;;;;8258509;28;20370;-73
2021/01/13 07:32:31;;;;;;;11.77;2.80;;;;;;;;;;8246265;28;20376;-73
2021/01/13 07:36:39;;;;;;;7.75;2.45;;;;;;;;;;8246976;28;20048;-74
2021/01/13 07:41:04;;;;;;;;;;;;;;;;;;8253241;28;20379;-73
2021/01/13 07:45:14;;;;;;;14.20;3.97;;;;;;;;;;8253535;28;20236;-74
2021/01/13 07:49:21;;;;;;;9.95;3.80;;;;;;;;;;8252035;28;20413;-73
2021/01/13 07:53:29;;;;;;;23.92;7.10;;;;;;;;;;8246558;28;20471;-73
2021/01/13 07:57:50;;;;;;;10.90;4.38;;;;;;;;;;8271435;28;20410;-73
2021/01/13 08:02:57;;;;;;;11.85;4.90;;;;;;;;;;8272452;28;20359;-73
2021/01/13 08:07:01;;;;;;;15.93;5.20;;;;;;;;;;8259711;28;20479;-73
2021/01/13 08:11:09;;;;;;;22.15;5.72;;;;;;;;;;8259114;28;20056;-74
2021/01/13 08:15:27;;;;;;;23.37;5.23;;;;;;;;;;8258570;28;20053;-73
2021/01/13 08:20:02;;;;;;;10.80;3.90;;;;;;;;;;8256511;28;20471;-73
2021/01/13 08:24:13;;;;;;;12.23;4.35;;;;;;;;;;8257246;28;20991;-73
2021/01/13 08:28:20;;;;;;;15.18;4.78;;;;;;;;;;8254095;28;20456;-73
2021/01/13 08:32:38;;;;;;;13.85;5.13;;;;;;;;;;8261513;28;20075;-73
2021/01/13 08:36:55;;;;;;;;;;;;;;;;;;8203017;28;20482;-73
2021/01/13 08:41:25;;;;;;;60.60;21.17;;;;;;;;;;8255660;28;20377;-74
2021/01/13 08:45:48;;;;;;;107.13;35.03;;;;;;;;;;8250668;28;20386;-74
2021/01/13 08:50:10;;;;;;;707.08;229.00;;;;;;;;;;8255082;28;20851;-74
2021/01/13 08:54:23;;;;;;;138.00;36.80;;;;;;;;;;8258078;28;20049;-74
2021/01/13 08:58:32;;;;;;;987.40;325.50;;;;;;;;;;8254480;28;20053;-73
2021/01/13 09:03:04;;;;;;;905.03;259.50;;;;;;;;;;8255377;28;20068;-74
2021/01/13 09:07:10;;;;;;;152.57;60.35;;;;;;;;;;8266833;28;20487;-75
2021/01/13 09:11:32;;;;;;;402.75;83.43;;;;;;;;;;8254854;28;20357;-75
2021/01/13 09:15:36;;;;;;;439.40;93.50;;;;;;;;;;8255771;28;20049;-73
2021/01/13 09:19:40;;;;;;;1005.45;247.80;;;;;;;;;;8237398;28;20483;-73
2021/01/13 09:23:56;;;;;;;745.63;188.52;;;;;;;;;;8255555;28;20476;-73
2021/01/13 09:28:03;;;;;;;323.65;78.80;;;;;;;;;;8253863;28;20360;-73
2021/01/13 09:32:15;;;;;;;664.08;212.80;;;;;;;;;;8251905;28;20380;-73
2021/01/13 09:36:20;;;;;;;773.10;303.20;;;;;;;;;;8269816;28;20364;-74
2021/01/13 09:40:44;;;;;;;488.17;218.77;;;;;;;;;;8253448;28;20643;-72
2021/01/13 09:45:01;;;;;;;45.30;19.48;;;;;;;;;;8254203;28;20052;-73
2021/01/13 09:49:08;;;;;;;56.63;26.58;;;;;;;;;;8253868;28;20475;-73
2021/01/13 09:53:14;;;;;;;41.88;22.10;;;;;;;;;;8253981;28;20493;-73
2021/01/13 09:57:18;;;;;;;32.08;16.38;;;;;;;;;;8253307;28;20467;-72
2021/01/13 10:01:25;;;;;;;90.65;24.75;;;;;;;;;;8235188;28;20372;-73
2021/01/13 10:05:32;;;;;;;1262.25;374.67;;;;;;;;;;8263875;28;20067;-74
2021/01/13 10:09:35;;;;;;;61.63;21.55;;;;;;;;;;8235824;28;20479;-73
2021/01/13 10:13:40;;;;;;;141.55;33.22;;;;;;;;;;8253849;28;20055;-72
2021/01/13 10:17:44;;;;;;;28.02;12.55;;;;;;;;;;8205460;28;20112;-73
2021/01/13 10:21:49;;;;;;;27.45;9.73;;;;;;;;;;8183083;28;20518;-72
2021/01/13 10:26:06;;;;;;;111.68;20.80;;;;;;;;;;8221038;28;20415;-74
2021/01/13 10:30:11;;;;;;;26.63;8.90;;;;;;;;;;8218809;28;20383;-73
2021/01/13 10:34:16;;;;;;;56.13;33.40;;;;;;;;;;8201465;28;20476;-73
2021/01/13 10:38:26;;;;;;;15.70;7.72;;;;;;;;;;8219574;28;20506;-72
2021/01/13 10:42:29;;;;;;;18.52;6.70;;;;;;;;;;8182383;28;20472;-73
2021/01/13 10:46:51;;;;;;;30.45;11.60;;;;;;;;;;8205342;28;20379;-72
2021/01/13 10:51:01;;;;;;;21.27;7.97;;;;;;;;;;8220514;28;20494;-75
2021/01/13 10:55:08;;;;;;;16.50;5.25;;;;;;;;;;8219838;28;20411;-74
2021/01/13 10:59:20;;;;;;;16.95;6.35;;;;;;;;;;8218589;28;20349;-73
2021/01/13 11:03:23;;;;;;;25.60;10.18;;;;;;;;;;8219945;28;20507;-72
2021/01/13 11:07:35;;;;;;;18.55;6.65;;;;;;;;;;8221568;28;20468;-72
2021/01/13 11:11:43;;;;;;;45.20;22.98;;;;;;;;;;8217446;28;20079;-73
2021/01/13 11:15:48;;;;;;;18.98;7.78;;;;;;;;;;8217208;28;20423;-73
2021/01/13 11:19:53;;;;;;;66.72;30.45;;;;;;;;;;8130689;28;20392;-72
2021/01/13 11:23:57;;;;;;;309.90;137.70;;;;;;;;;;8186873;28;20113;-72
2021/01/13 11:28:09;;;;;;;275.73;112.43;;;;;;;;;;8185696;28;20420;-72
2021/01/13 11:32:19;;;;;;;112.55;60.30;;;;;;;;;;8189486;28;20420;-73
2021/01/13 11:36:31;;;;;;;36.38;16.98;;;;;;;;;;8194567;28;20469;-71
2021/01/13 11:40:54;;;;;;;48.65;27.33;;;;;;;;;;8194459;28;20476;-72
2021/01/13 11:45:21;;;;;;;284.45;131.60;;;;;;;;;;8193858;28;20354;-73
2021/01/13 11:49:33;;;;;;;55.22;24.73;;;;;;;;;;8191425;28;20676;-72
2021/01/13 11:53:38;;;;;;;348.40;165.48;;;;;;;;;;8192927;28;20495;-72
2021/01/13 11:57:47;;;;;;;318.70;175.63;;;;;;;;;;8189596;28;20366;-73
2021/01/13 12:01:52;;;;;;;147.35;73.15;;;;;;;;;;8190724;28;20510;-73
2021/01/13 12:06:10;;;;;;;71.30;32.25;;;;;;;;;;8191181;28;20484;-72
2021/01/13 12:10:15;;;;;;;132.68;76.88;;;;;;;;;;8191202;28;20408;-73
2021/01/13 12:14:18;;;;;;;77.90;38.30;;;;;;;;;;8190675;28;20403;-72
2021/01/13 12:18:26;;;;;;;82.80;37.75;;;;;;;;;;8191933;28;20420;-72
2021/01/13 12:22:36;;;;;;;;;;;;;;;;;;8192724;28;20472;-72
2021/01/13 12:26:39;;;;;;;47.33;21.98;;;;;;;;;;8192043;28;20253;-72
2021/01/13 12:30:55;;;;;;;84.97;43.63;;;;;;;;;;8191092;28;20381;-73
2021/01/13 12:34:59;;;;;;;82.22;41.42;;;;;;;;;;8188912;28;20058;-72
2021/01/13 12:39:05;;;;;;;78.47;39.85;;;;;;;;;;8196233;28;20488;-72
2021/01/13 12:43:17;;;;;;;44.67;24.80;;;;;;;;;;8216821;28;20492;-72
2021/01/13 12:47:26;;;;;;;43.50;20.55;;;;;;;;;;8221753;28;20479;-72
2021/01/13 12:51:29;;;;;;;28.63;12.75;;;;;;;;;;8222712;28;20065;-72
2021/01/13 12:55:32;;;;;;;34.55;19.08;;;;;;;;;;8220696;28;20491;-72
2021/01/13 12:59:35;;;;;;;26.52;14.77;;;;;;;;;;8222552;28;20358;-72
2021/01/13 13:03:38;;;;;;;32.78;13.93;;;;;;;;;;8223287;28;20478;-71
2021/01/13 13:07:41;;;;;;;41.35;17.02;;;;;;;;;;8222069;28;20416;-72
2021/01/13 13:11:44;;;;;;;20.15;10.05;;;;;;;;;;8221789;28;20412;-72
2021/01/13 13:15:47;;;;;;;31.85;14.02;;;;;;;;;;8221586;28;20500;-72
2021/01/13 13:19:50;;;;;;;53.35;22.67;;;;;;;;;;8221034;28;20491;-72
2021/01/13 13:23:54;;;;;;;29.08;12.95;;;;;;;;;;8221680;28;20477;-72
2021/01/13 13:27:57;;;;;;;25.67;12.43;;;;;;;;;;8205109;28;20505;-75
2021/01/13 13:32:00;;;;;;;30.58;16.45;;;;;;;;;;8221905;28;20605;-72
2021/01/13 13:36:05;;;;;;;29.40;14.73;;;;;;;;;;8222237;28;20416;-73
2021/01/13 13:40:10;;;;;;;33.58;15.90;;;;;;;;;;8203711;28;20472;-72
2021/01/13 13:44:13;;;;;;;26.45;12.43;;;;;;;;;;8218116;28;20522;-72
2021/01/13 13:48:17;;;;;;;31.55;16.52;;;;;;;;;;8202029;28;20496;-72
2021/01/13 13:52:20;;;;;;;41.15;23.23;;;;;;;;;;8222045;28;20411;-72
2021/01/13 13:56:43;;;;;;;83.38;39.90;;;;;;;;;;8219093;28;20369;-72
2021/01/13 14:00:46;;;;;;;56.47;34.30;;;;;;;;;;8204218;28;20046;-72
2021/01/13 14:04:49;;;;;;;24.33;10.30;;;;;;;;;;8219405;28;20476;-72
2021/01/13 14:08:53;;;;;;;26.70;12.90;;;;;;;;;;8221557;28;20533;-72
2021/01/13 14:12:56;;;;;;;19.95;9.30;;;;;;;;;;8219184;28;20099;-72
2021/01/13 14:16:59;;;;;;;39.67;15.63;;;;;;;;;;8221314;28;20494;-76
2021/01/13 14:21:02;;;;;;;36.40;16.52;;;;;;;;;;8220858;28;20411;-74
2021/01/13 14:25:07;;;;;;;27.27;13.63;;;;;;;;;;8218251;28;20428;-72
2021/01/13 14:29:10;;;;;;;28.17;9.93;;;;;;;;;;8216985;28;20353;-72
2021/01/13 14:33:13;;;;;;;18.10;7.18;;;;;;;;;;8220420;28;20041;-72
2021/01/13 14:37:16;;;;;;;18.42;8.25;;;;;;;;;;8183653;28;20401;-73
2021/01/13 14:41:19;;;;;;;21.77;10.02;;;;;;;;;;8183092;28;20500;-73
2021/01/13 14:45:25;;;;;;;22.50;8.00;;;;;;;;;;8182194;28;20408;-72
2021/01/13 14:49:28;;;;;;;22.65;10.00;;;;;;;;;;8198663;28;20492;-72
2021/01/13 14:53:31;;;;;;;28.77;11.30;;;;;;;;;;8181404;28;20388;-73
2021/01/13 14:57:35;;;;;;;39.00;13.88;;;;;;;;;;8181885;28;20479;-73
2021/01/13 15:01:38;;;;;;;35.60;14.73;;;;;;;;;;8183178;28;20494;-74
2021/01/13 15:05:41;;;;;;;36.40;14.00;;;;;;;;;;8183101;28;20050;-72
2021/01/13 15:09:44;;;;;;;26.33;11.23;;;;;;;;;;8198492;28;20372;-72
2021/01/13 15:13:47;;;;;;;44.22;18.63;;;;;;;;;;8198198;28;20750;-72
2021/01/13 15:17:50;;;;;;;372.88;130.50;;;;;;;;;;8217439;28;20057;-72
2021/01/13 15:21:55;;;;;;;196.88;72.05;;;;;;;;;;8218438;28;20381;-72
2021/01/13 15:25:58;;;;;;;270.55;77.72;;;;;;;;;;8220017;28;20407;-72
2021/01/13 15:30:01;;;;;;;267.33;108.47;;;;;;;;;;8215142;28;20427;-72
2021/01/13 15:34:04;;;;;;;1313.75;482.13;;;;;;;;;;8219045;28;20479;-73
2021/01/13 15:38:08;;;;;;;118.05;42.45;;;;;;;;;;8224989;28;20387;-72
2021/01/13 15:42:13;;;;;;;174.07;66.95;;;;;;;;;;8252379;28;20487;-72
2021/01/13 15:46:23;;;;;;;92.85;34.78;;;;;;;;;;8253807;28;20484;-72
2021/01/13 15:50:27;;;;;;;62.55;22.60;;;;;;;;;;8249371;28;20400;-72
2021/01/13 15:54:31;;;;;;;122.05;46.92;;;;;;;;;;8254382;28;20501;-73
2021/01/13 15:58:51;;;;;;;271.92;88.75;;;;;;;;;;8236884;28;20437;-75
2021/01/13 16:02:55;;;;;;;104.30;37.00;;;;;;;;;;8248110;28;20375;-72
2021/01/13 16:07:04;;;;;;;97.30;39.60;;;;;;;;;;8251917;28;20501;-73
2021/01/13 16:11:07;;;;;;;65.57;24.63;;;;;;;;;;8249699;28;20391;-73
2021/01/13 16:15:12;;;;;;;60.22;20.75;;;;;;;;;;8251791;28;20048;-73
2021/01/13 16:19:16;;;;;;;104.57;49.85;;;;;;;;;;8238731;28;20459;-73
2021/01/13 16:23:21;;;;;;;467.45;185.48;;;;;;;;;;8257558;28;20482;-72
2021/01/13 16:27:28;;;;;;;51.08;22.13;;;;;;;;;;8256329;28;20071;-73
2021/01/13 16:31:34;;;;;;;71.22;29.48;;;;;;;;;;8258515;28;20410;-74
2021/01/13 16:35:39;;;;;;;100.85;45.95;;;;;;;;;;8257589;28;20357;-74
2021/01/13 16:39:42;;;;;;;68.93;31.35;;;;;;;;;;8259342;28;20476;-74
2021/01/13 16:43:56;;;;;;;69.38;34.88;;;;;;;;;;8259762;28;20378;-73
2021/01/13 16:47:59;;;;;;;471.35;204.00;;;;;;;;;;8252842;28;20063;-71
2021/01/13 16:52:10;;;;;;;135.85;52.72;;;;;;;;;;8247979;28;20049;-74
2021/01/13 16:56:20;;;;;;;99.07;41.95;;;;;;;;;;8248459;28;20071;-76
2021/01/13 17:00:28;;;;;;;71.43;30.77;;;;;;;;;;8254895;28;20079;-71
2021/01/13 17:04:31;;;;;;;101.78;42.10;;;;;;;;;;8271934;28;20053;-72
2021/01/13 17:08:34;;;;;;;115.70;46.85;;;;;;;;;;8253437;28;20048;-73
2021/01/13 17:12:41;;;;;;;137.60;58.97;;;;;;;;;;8253488;28;20464;-75
2021/01/13 17:16:47;;;;;;;203.82;79.20;;;;;;;;;;8254399;28;20057;-73
2021/01/13 17:20:51;;;;;;;118.90;44.63;;;;;;;;;;8250937;28;20063;-74
2021/01/13 17:24:57;;;;;;;239.77;64.13;;;;;;;;;;8250068;28;20772;-73
2021/01/13 17:29:01;;;;;;;276.23;66.60;;;;;;;;;;8232629;28;20165;-73
2021/01/13 17:33:07;;;;;;;438.88;96.05;;;;;;;;;;8254376;28;20374;-74
2021/01/13 17:37:16;;;;;;;603.50;207.50;;;;;;;;;;8256327;28;20379;-72
2021/01/13 17:41:23;;;;;;;1999.90;820.95;;;;;;;;;;8254613;28;20537;-73
2021/01/13 17:45:28;;;;;;;1159.55;282.38;;;;;;;;;;8255619;28;20357;-72
2021/01/13 17:49:31;;;;;;;190.38;52.70;;;;;;;;;;8255748;28;20052;-72
2021/01/13 17:53:36;;;;;;;311.17;67.53;;;;;;;;;;8256481;28;20048;-73
2021/01/13 17:57:40;;;;;;;244.82;66.38;;;;;;;;;;8253693;28;20053;-72
2021/01/13 18:02:03;;;;;;;813.60;277.05;;;;;;;;;;8250228;28;20472;-75
2021/01/13 18:06:14;;;;;;;754.45;192.98;;;;;;;;;;8245952;28;20087;-72
2021/01/13 18:10:20;;;;;;;443.63;92.65;;;;;;;;;;8254014;28;20456;-71
2021/01/13 18:14:27;;;;;;;397.75;94.63;;;;;;;;;;8252957;28;20478;-74
2021/01/13 18:18:30;;;;;;;177.73;57.90;;;;;;;;;;8252431;28;20463;-71
2021/01/13 18:22:35;;;;;;;208.50;52.63;;;;;;;;;;8249194;28;20057;-71
2021/01/13 18:26:38;;;;;;;157.95;57.85;;;;;;;;;;8250935;28;20414;-76
2021/01/13 18:30:45;;;;;;;448.77;135.27;;;;;;;;;;8252301;28;20049;-72
2021/01/13 18:34:48;;;;;;;588.75;133.23;;;;;;;;;;8251864;28;20057;-73
2021/01/13 18:38:51;;;;;;;265.77;75.30;;;;;;;;;;8215728;28;20379;-72
2021/01/13 18:43:06;;;;;;;144.50;47.38;;;;;;;;;;8182021;28;20372;-72
2021/01/13 18:47:13;;;;;;;192.38;74.57;;;;;;;;;;8214873;28;20514;-72
2021/01/13 18:51:17;;;;;;;118.70;46.50;;;;;;;;;;8151104;28;20374;-71
2021/01/13 18:55:21;;;;;;;353.58;138.45;;;;;;;;;;8150299;28;20092;-71
2021/01/13 18:59:26;;;;;;;354.48;115.20;;;;;;;;;;8133884;28;20461;-71
2021/01/13 19:03:29;;;;;;;186.80;60.83;;;;;;;;;;8150532;28;20382;-72
2021/01/13 19:07:32;;;;;;;94.13;34.75;;;;;;;;;;8138017;28;20480;-72
2021/01/13 19:11:39;;;;;;;114.47;41.55;;;;;;;;;;8183185;28;20160;-72
2021/01/13 19:15:43;;;;;;;101.22;41.45;;;;;;;;;;8166716;28;20381;-73
2021/01/13 19:19:48;;;;;;;84.15;33.70;;;;;;;;;;8152676;28;20354;-73
2021/01/13 19:23:55;;;;;;;261.20;100.45;;;;;;;;;;8253320;28;20076;-72
2021/01/13 19:28:01;;;;;;;266.27;83.15;;;;;;;;;;8249006;28;20079;-73
2021/01/13 19:32:14;;;;;;;109.40;37.35;;;;;;;;;;8252221;28;20486;-73
2021/01/13 19:36:17;;;;;;;209.75;76.15;;;;;;;;;;8249766;28;20375;-73
2021/01/13 19:40:24;;;;;;;144.80;56.00;;;;;;;;;;8252243;28;20379;-72
2021/01/13 19:44:29;;;;;;;;;;;;;;;;;;8251243;28;20079;-72
2021/01/13 19:48:32;;;;;;;164.50;58.90;;;;;;;;;;8267187;28;20278;-72
2021/01/13 19:52:36;;;;;;;696.78;321.10;;;;;;;;;;8236388;28;20056;-72
2021/01/13 19:56:40;;;;;;;290.40;102.55;;;;;;;;;;8258025;28;20479;-73
2021/01/13 20:00:44;;;;;;;281.67;60.90;;;;;;;;;;8257315;28;20506;-73
2021/01/13 20:04:48;;;;;;;278.17;56.58;;;;;;;;;;8256664;28;20359;-72
2021/01/13 20:08:51;;;;;;;1798.35;554.15;;;;;;;;;;8257943;28;20379;-72
2021/01/13 20:12:56;;;;;;;1999.90;788.10;;;;;;;;;;8255056;28;20482;-71
2021/01/13 20:17:01;;;;;;;1999.90;823.67;;;;;;;;;;8242426;28;20045;-72
2021/01/13 20:21:05;;;;;;;1752.32;400.55;;;;;;;;;;8254266;28;20473;-71
2021/01/13 20:25:12;;;;;;;452.88;86.22;;;;;;;;;;8244823;28;20407;-72
2021/01/13 20:29:16;;;;;;;419.83;70.95;;;;;;;;;;8258075;28;20474;-72
2021/01/13 20:33:34;;;;;;;271.45;50.13;;;;;;;;;;8244762;28;20499;-72
2021/01/13 20:37:40;;;;;;;226.52;43.70;;;;;;;;;;8257202;28;20472;-73
2021/01/13 20:41:49;;;;;;;299.10;54.17;;;;;;;;;;8259577;28;20405;-71
2021/01/13 20:45:52;;;;;;;367.10;64.82;;;;;;;;;;8258457;28;20380;-71
2021/01/13 20:49:56;;;;;;;346.55;55.28;;;;;;;;;;8242378;28;20472;-71
2021/01/13 20:54:04;;;;;;;289.90;52.63;;;;;;;;;;8258446;28;20387;-74
2021/01/13 20:58:07;;;;;;;334.27;53.53;;;;;;;;;;8255236;28;20514;-72
2021/01/13 21:02:10;;;;;;;260.90;47.72;;;;;;;;;;8258790;28;20071;-71
2021/01/13 21:06:15;;;;;;;316.70;55.30;;;;;;;;;;8258103;28;20091;-71
2021/01/13 21:10:20;;;;;;;414.23;68.05;;;;;;;;;;8255521;28;20486;-71
2021/01/13 21:14:23;;;;;;;181.98;35.63;;;;;;;;;;8238634;28;20669;-72
2021/01/13 21:18:27;;;;;;;162.80;35.00;;;;;;;;;;8221600;28;20432;-71
2021/01/13 21:22:35;;;;;;;208.43;38.17;;;;;;;;;;8255593;28;20067;-72
2021/01/13 21:26:41;;;;;;;394.23;64.97;;;;;;;;;;8251028;28;20386;-72
2021/01/13 21:30:44;;;;;;;347.67;56.72;;;;;;;;;;8254329;28;20493;-71
2021/01/13 21:34:48;;;;;;;187.13;45.08;;;;;;;;;;8255618;28;20049;-72
2021/01/13 21:38:52;;;;;;;295.33;46.58;;;;;;;;;;8254051;28;20389;-71
2021/01/13 21:42:55;;;;;;;161.02;37.35;;;;;;;;;;8253568;28;20386;-71
2021/01/13 21:46:59;;;;;;;372.73;61.28;;;;;;;;;;8254954;28;20052;-71
2021/01/13 21:51:03;;;;;;;301.40;59.28;;;;;;;;;;8253927;28;20357;-71
2021/01/13 21:55:08;;;;;;;195.60;46.60;;;;;;;;;;8253232;28;20356;-72
2021/01/13 21:59:11;;;;;;;217.10;62.50;;;;;;;;;;8251875;28;20112;-71
2021/01/13 22:03:14;;;;;;;319.55;67.05;;;;;;;;;;8250739;28;20468;-71
2021/01/13 22:07:17;;;;;;;192.48;44.22;;;;;;;;;;8251843;28;20357;-76
2021/01/13 22:11:22;;;;;;;305.95;61.40;;;;;;;;;;8252696;28;20486;-71
2021/01/13 22:15:25;;;;;;;366.92;72.05;;;;;;;;;;8252890;28;20053;-71
2021/01/13 22:19:28;;;;;;;280.90;59.08;;;;;;;;;;8253511;28;20475;-71
2021/01/13 22:23:31;;;;;;;245.25;53.95;;;;;;;;;;8251747;28;20448;-70
2021/01/13 22:27:34;;;;;;;263.20;54.17;;;;;;;;;;8253412;28;20367;-73
2021/01/13 22:31:37;;;;;;;372.42;75.70;;;;;;;;;;8252505;28;20084;-71
2021/01/13 22:35:40;;;;;;;284.20;61.95;;;;;;;;;;8252845;28;20498;-71
2021/01/13 22:39:44;;;;;;;181.20;41.10;;;;;;;;;;8251963;28;20392;-74
2021/01/13 22:43:47;;;;;;;269.02;49.65;;;;;;;;;;8252028;28;20360;-71
2021/01/13 22:47:50;;;;;;;127.88;29.35;;;;;;;;;;8251671;28;20482;-71
2021/01/13 22:51:53;;;;;;;241.70;45.35;;;;;;;;;;8267363;28;20497;-71
2021/01/13 22:55:57;;;;;;;272.48;47.70;;;;;;;;;;8229566;28;20426;-72
2021/01/13 23:00:00;;;;;;;210.38;39.88;;;;;;;;;;8251212;28;20634;-71
2021/01/13 23:04:03;;;;;;;172.82;36.28;;;;;;;;;;8250167;28;20464;-71
2021/01/13 23:08:09;;;;;;;208.55;38.72;;;;;;;;;;8266985;28;20049;-71
2021/01/13 23:12:13;;;;;;;260.10;46.05;;;;;;;;;;8252239;28;20115;-71
2021/01/13 23:16:16;;;;;;;178.85;35.90;;;;;;;;;;8250144;28;20494;-71
2021/01/13 23:20:21;;;;;;;258.10;41.65;;;;;;;;;;8249992;28;20061;-71
2021/01/13 23:24:24;;;;;;;257.90;47.20;;;;;;;;;;8252651;28;20475;-71
2021/01/13 23:28:27;;;;;;;253.27;42.65;;;;;;;;;;8260322;28;20486;-71
2021/01/13 23:32:30;;;;;;;132.25;27.42;;;;;;;;;;8279771;28;20515;-71
2021/01/13 23:36:33;;;;;;;102.50;21.85;;;;;;;;;;8262459;28;20059;-71
2021/01/13 23:40:38;;;;;;;163.30;33.65;;;;;;;;;;8261779;28;20083;-72
2021/01/13 23:44:40;;;;;;;144.02;29.10;;;;;;;;;;8261197;28;20379;-71
2021/01/13 23:48:44;;;;;;;247.65;42.30;;;;;;;;;;8262346;28;20383;-71
2021/01/13 23:52:47;;;;;;;252.88;44.17;;;;;;;;;;8263929;28;20513;-71
2021/01/13 23:56:50;;;;;;;83.32;18.60;;;;;;;;;;8262065;28;20502;-71
